Snow/Ice From: 17-12-2017 10:00 Until: 18-12-2017 06:00 warning for: Snow/Ice Level: Yellow info button

Although rather usual in this region, locally or potentially dangerous phenomena are expected. (such as local winds, summer thunderstorms, rising streams or high waves) Be aware and pay attention to the latest weather updates, especially if you carry out activities exposed to weather or close to a stream or shoreline. 


Meteo18 Weather Cam more information Meteo18 Weather Cam


Thunder radar more information blitzortung!


warning for Snow/Ice more information rain snow radar


Visit our other weather sites:

Template documentation
and downloads

And another site



Weather Underground History page Text

Daily Summary for January 21, 2017 Units:  English    Metric   Both
« Previous Day
Next Day »
Daily Weekly Monthly Yearly Custom
  High: Low: Average:
Temperature: 41 °F 20.5 °F 30.2 °F
Dew Point: 31.3 °F 18.7 °F 25.3 °F
Humidity: 95 % 66 % 83 %
Wind Speed: 5 mph 0 mph 0.5 mph
Wind Gust: 9 mph - -
Wind:- - ESE
Pressure: 30.4 in 30.3 in -
Precipitation: 0 in    
Historical Graphs
 
 
Tabular Data for January 21, 2017
Time Temperature Dew Point Pressure Wind Wind Speed Wind Gust Humidity Rainfall Rate (Hourly)
00:02 23.4 °F 21.4 °F 30.4 in Calm   2 mph 92 % 0 in
00:07 23.2 °F 21 °F 30.4 in Calm   1 mph 91 % 0 in
00:12 22.8 °F 20.8 °F 30.4 in WNW 1 mph 1 mph 92 % 0 in
00:17 23 °F 21.2 °F 30.4 in Calm   1 mph 93 % 0 in
00:22 22.6 °F 20.8 °F 30.4 in Calm   1 mph 93 % 0 in
00:27 23 °F 21.6 °F 30.4 in Calm   1 mph 94 % 0 in
00:32 23.5 °F 22.1 °F 30.4 in Calm     94 % 0 in
00:37 23.7 °F 21.9 °F 30.4 in Calm     93 % 0 in
00:42 24.1 °F 22.6 °F 30.4 in Calm   1 mph 94 % 0 in
00:52 25.2 °F 23.4 °F 30.4 in Calm   1 mph 93 % 0 in
00:57 24.8 °F 22.5 °F 30.4 in Calm     91 % 0 in
01:02 24.1 °F 21.9 °F 30.4 in Calm     91 % 0 in
01:07 23.7 °F 21.7 °F 30.4 in Calm     92 % 0 in
01:12 23.5 °F 21.6 °F 30.4 in Calm     92 % 0 in
01:17 23.5 °F 21.7 °F 30.4 in Calm     93 % 0 in
01:22 23.5 °F 21.7 °F 30.4 in Calm     93 % 0 in
01:27 23.5 °F 21.7 °F 30.4 in Calm     93 % 0 in
01:32 23.5 °F 21.7 °F 30.4 in Calm     93 % 0 in
01:37 23.7 °F 21.9 °F 30.4 in Calm     93 % 0 in
01:42 24.3 °F 22.8 °F 30.4 in Calm     94 % 0 in
01:47 24.3 °F 22.3 °F 30.4 in Calm     92 % 0 in
01:52 24.4 °F 22.5 °F 30.4 in Calm     92 % 0 in
01:57 24.3 °F 22.1 °F 30.4 in Calm     91 % 0 in
02:02 24.1 °F 21.6 °F 30.4 in Calm     90 % 0 in
02:07 23.7 °F 21.9 °F 30.4 in Calm     93 % 0 in
02:17 24.3 °F 22.3 °F 30.4 in Calm     92 % 0 in
02:22 24.8 °F 22.8 °F 30.4 in Calm     92 % 0 in
02:27 24.3 °F 21.6 °F 30.4 in Calm     89 % 0 in
02:32 23.9 °F 21.9 °F 30.4 in Calm     92 % 0 in
02:37 24.3 °F 22.3 °F 30.4 in Calm     92 % 0 in
02:42 24.4 °F 22.5 °F 30.4 in Calm     92 % 0 in
02:47 24.6 °F 22.6 °F 30.4 in Calm     92 % 0 in
02:52 24.4 °F 22.3 °F 30.4 in Calm     91 % 0 in
03:02 23.5 °F 21.7 °F 30.4 in Calm     93 % 0 in
03:07 23.9 °F 21.9 °F 30.4 in Calm     92 % 0 in
03:12 23.7 °F 21.6 °F 30.4 in Calm     91 % 0 in
03:17 23.4 °F 21.2 °F 30.4 in Calm     91 % 0 in
03:22 23.4 °F 21.4 °F 30.4 in Calm     92 % 0 in
03:32 23.7 °F 21.7 °F 30.4 in Calm     92 % 0 in
03:37 23.5 °F 21.4 °F 30.4 in Calm     91 % 0 in
03:42 23.2 °F 20.7 °F 30.4 in Calm     90 % 0 in
03:47 23.2 °F 21.4 °F 30.4 in Calm     93 % 0 in
03:52 23.4 °F 21.4 °F 30.4 in Calm     92 % 0 in
03:57 23 °F 20.8 °F 30.4 in Calm     91 % 0 in
04:02 22.8 °F 20.8 °F 30.4 in Calm     92 % 0 in
04:07 23.2 °F 21.2 °F 30.4 in Calm     92 % 0 in
04:12 23.4 °F 21.4 °F 30.4 in Calm     92 % 0 in
04:17 23.4 °F 21.4 °F 30.4 in Calm     92 % 0 in
04:22 22.8 °F 20.7 °F 30.4 in Calm     91 % 0 in
04:27 22.3 °F 20.3 °F 30.4 in Calm     92 % 0 in
04:32 22.8 °F 21.4 °F 30.4 in Calm     94 % 0 in
04:37 23.4 °F 21.9 °F 30.4 in Calm     94 % 0 in
04:42 22.6 °F 20.5 °F 30.3 in Calm     91 % 0 in
04:47 22.6 °F 20.7 °F 30.3 in Calm     92 % 0 in
04:52 22.8 °F 20.8 °F 30.3 in NNW 1 mph   92 % 0 in
04:57 23 °F 21.2 °F 30.3 in Calm   1 mph 93 % 0 in
05:02 23.4 °F 21.6 °F 30.3 in Calm   1 mph 93 % 0 in
05:12 22.8 °F 21 °F 30.3 in Calm   1 mph 93 % 0 in
05:17 23.7 °F 21.9 °F 30.4 in Calm     93 % 0 in
05:22 23.7 °F 21.6 °F 30.3 in Calm     91 % 0 in
05:32 22.8 °F 20.1 °F 30.3 in Calm   1 mph 89 % 0 in
05:37 22.8 °F 20.7 °F 30.3 in WNW 1 mph   91 % 0 in
05:42 23.2 °F 21.2 °F 30.3 in Calm     92 % 0 in
05:52 23.2 °F 21 °F 30.3 in Calm   1 mph 91 % 0 in
05:57 22.8 °F 20.7 °F 30.3 in Calm   1 mph 91 % 0 in
06:02 23.2 °F 21.2 °F 30.3 in Calm   1 mph 92 % 0 in
06:12 23.9 °F 21.7 °F 30.3 in Calm     91 % 0 in
06:17 24.1 °F 21.9 °F 30.3 in Calm     91 % 0 in
06:22 24.1 °F 21.9 °F 30.3 in Calm     91 % 0 in
06:32 23.7 °F 21.2 °F 30.3 in Calm     90 % 0 in
06:42 23.4 °F 20.8 °F 30.3 in Calm     90 % 0 in
06:47 23.5 °F 21.4 °F 30.3 in Calm     91 % 0 in
06:52 22.8 °F 20.3 °F 30.3 in Calm     90 % 0 in
07:02 22.3 °F 20.3 °F 30.3 in Calm     92 % 0 in
07:07 22.6 °F 20.8 °F 30.3 in Calm     93 % 0 in
07:12 23.2 °F 21.2 °F 30.3 in Calm     92 % 0 in
07:17 23.5 °F 21.4 °F 30.3 in Calm     91 % 0 in
07:22 22.3 °F 19.8 °F 30.3 in Calm     90 % 0 in
07:32 21.4 °F 18.9 °F 30.3 in Calm     90 % 0 in
07:37 21.2 °F 19.2 °F 30.3 in Calm     92 % 0 in
07:42 20.7 °F 18.7 °F 30.3 in Calm     92 % 0 in
07:52 20.5 °F 18.9 °F 30.3 in Calm     93 % 0 in
07:57 21 °F 19.4 °F 30.3 in Calm     93 % 0 in
08:02 22.3 °F 21 °F 30.3 in Calm     95 % 0 in
08:12 22.8 °F 21 °F 30.3 in Calm     93 % 0 in
08:17 22.6 °F 20.5 °F 30.3 in Calm     91 % 0 in
08:22 22.8 °F 21 °F 30.3 in Calm     93 % 0 in
08:27 23.4 °F 21.6 °F 30.3 in Calm     93 % 0 in
08:32 22.8 °F 20.7 °F 30.3 in Calm     91 % 0 in
08:37 23 °F 21 °F 30.3 in Calm     92 % 0 in
08:42 23.2 °F 21 °F 30.3 in Calm     91 % 0 in
08:52 22.8 °F 20.3 °F 30.3 in Calm     90 % 0 in
08:57 22.5 °F 20.5 °F 30.4 in Calm     92 % 0 in
09:02 23.7 °F 21.9 °F 30.3 in Calm     93 % 0 in
09:07 24.3 °F 22.3 °F 30.3 in Calm     92 % 0 in
09:12 24.4 °F 21.9 °F 30.3 in Calm     90 % 0 in
09:17 24.4 °F 21.7 °F 30.3 in Calm     89 % 0 in
09:22 25.5 °F 22.8 °F 30.4 in Calm     89 % 0 in
09:27 26.4 °F 23.4 °F 30.4 in Calm     88 % 0 in
09:32 26.8 °F 23.2 °F 30.4 in Calm     86 % 0 in
09:37 27.1 °F 23.5 °F 30.4 in Calm   2 mph 86 % 0 in
09:42 27.3 °F 23.4 °F 30.4 in Calm   2 mph 85 % 0 in
09:47 27.1 °F 23.2 °F 30.4 in Calm   2 mph 85 % 0 in
09:52 27.5 °F 23.5 °F 30.4 in Calm   2 mph 85 % 0 in
09:57 28 °F 24.1 °F 30.4 in Calm   2 mph 85 % 0 in
10:02 28 °F 23.9 °F 30.4 in Calm   2 mph 84 % 0 in
10:12 28.6 °F 24.4 °F 30.4 in Calm   1 mph 84 % 0 in
10:17 28.8 °F 23.9 °F 30.4 in SSE 2 mph 2 mph 82 % 0 in
10:22 29.3 °F 24.8 °F 30.4 in Calm   1 mph 83 % 0 in
10:32 30 °F 25.2 °F 30.4 in Calm   3 mph 82 % 0 in
10:37 30 °F 24.6 °F 30.4 in Calm   1 mph 80 % 0 in
10:42 29.8 °F 24.4 °F 30.4 in Calm   1 mph 80 % 0 in
10:47 29.7 °F 23.9 °F 30.4 in SE 1 mph 2 mph 79 % 0 in
10:52 29.7 °F 24.6 °F 30.3 in Calm   2 mph 81 % 0 in
10:57 30 °F 25 °F 30.3 in Calm   2 mph 81 % 0 in
11:02 30.4 °F 25.5 °F 30.4 in ESE 3 mph 3 mph 82 % 0 in
11:07 30.6 °F 25.3 °F 30.4 in Calm   3 mph 81 % 0 in
11:12 30.9 °F 25.7 °F 30.4 in Calm   3 mph 81 % 0 in
11:17 31.3 °F 26.1 °F 30.4 in Calm   3 mph 81 % 0 in
11:22 31.3 °F 25.5 °F 30.4 in ESE 1 mph 2 mph 79 % 0 in
11:27 31.5 °F 26.1 °F 30.4 in SE 2 mph 2 mph 80 % 0 in
11:32 31.6 °F 25.9 °F 30.3 in Calm   2 mph 79 % 0 in
11:37 32 °F 26.6 °F 30.3 in ESE 1 mph 2 mph 80 % 0 in
11:42 31.8 °F 26.1 °F 30.3 in Calm   2 mph 79 % 0 in
11:47 32.4 °F 26.6 °F 30.3 in SE 2 mph 2 mph 79 % 0 in
11:52 32.4 °F 26.6 °F 30.3 in Calm   3 mph 79 % 0 in
11:57 32.7 °F 27 °F 30.3 in SE 1 mph 3 mph 79 % 0 in
12:02 33.1 °F 27.3 °F 30.3 in SE 1 mph 3 mph 79 % 0 in
12:07 33.3 °F 27.1 °F 30.3 in Calm   2 mph 78 % 0 in
12:12 33.4 °F 27.3 °F 30.3 in SE 1 mph 3 mph 78 % 0 in
12:17 33.6 °F 27.5 °F 30.3 in Calm   3 mph 78 % 0 in
12:22 34.3 °F 27.9 °F 30.3 in ESE 3 mph 3 mph 77 % 0 in
12:27 34.3 °F 27.9 °F 30.3 in SE 2 mph 3 mph 77 % 0 in
12:32 34.2 °F 27.7 °F 30.3 in ENE 2 mph 4 mph 77 % 0 in
12:37 34.2 °F 27.7 °F 30.3 in East 2 mph 4 mph 77 % 0 in
12:42 34.3 °F 27.9 °F 30.3 in SE 3 mph 5 mph 77 % 0 in
12:47 34.5 °F 28 °F 30.3 in Calm   4 mph 77 % 0 in
12:52 34.5 °F 28 °F 30.3 in East 2 mph 4 mph 77 % 0 in
12:57 34.3 °F 28.2 °F 30.3 in Calm   4 mph 78 % 0 in
13:02 34.5 °F 28 °F 30.3 in Calm   4 mph 77 % 0 in
13:07 34.5 °F 28 °F 30.3 in East 1 mph 2 mph 77 % 0 in
13:12 34.9 °F 28 °F 30.3 in ESE 1 mph 2 mph 76 % 0 in
13:17 35.4 °F 28.6 °F 30.3 in East 1 mph 2 mph 76 % 0 in
13:22 35.6 °F 28.4 °F 30.3 in ESE 1 mph 2 mph 75 % 0 in
13:32 36.3 °F 29.1 °F 30.3 in ESE 1 mph 2 mph 75 % 0 in
13:37 36.7 °F 29.5 °F 30.3 in ESE 2 mph 9 mph 75 % 0 in
13:42 36.7 °F 29.8 °F 30.3 in SE 1 mph 9 mph 76 % 0 in
13:47 36.9 °F 29.3 °F 30.3 in ESE 2 mph 9 mph 74 % 0 in
13:52 36.9 °F 29.3 °F 30.3 in East 2 mph 5 mph 74 % 0 in
13:57 36.7 °F 29.1 °F 30.3 in ESE 1 mph 5 mph 74 % 0 in
14:02 36.9 °F 29.7 °F 30.3 in East 1 mph 5 mph 75 % 0 in
14:07 37 °F 29.5 °F 30.3 in Calm   3 mph 74 % 0 in
14:12 37.2 °F 30 °F 30.3 in NE 3 mph 4 mph 75 % 0 in
14:17 37.4 °F 29.8 °F 30.3 in ENE 2 mph 4 mph 74 % 0 in
14:22 37.8 °F 29.8 °F 30.3 in East 3 mph 4 mph 73 % 0 in
14:27 38.1 °F 29.8 °F 30.3 in NE 2 mph 5 mph 72 % 0 in
14:32 38.7 °F 30.7 °F 30.3 in ENE 3 mph 5 mph 73 % 0 in
14:37 38.8 °F 30.2 °F 30.3 in ENE 1 mph 5 mph 71 % 0 in
14:42 39 °F 30.4 °F 30.3 in ENE 5 mph 5 mph 71 % 0 in
14:47 39.2 °F 30.6 °F 30.3 in NE 1 mph 5 mph 71 % 0 in
14:52 39.4 °F 30.4 °F 30.3 in NE 2 mph 5 mph 70 % 0 in
14:57 39.6 °F 30.6 °F 30.3 in Calm   5 mph 70 % 0 in
15:02 39.7 °F 30.4 °F 30.3 in ENE 2 mph 5 mph 69 % 0 in
15:12 40.1 °F 30 °F 30.3 in East 1 mph 4 mph 67 % 0 in
15:17 40.3 °F 30.9 °F 30.3 in NE 2 mph 4 mph 69 % 0 in
15:22 40.5 °F 30.7 °F 30.3 in NE 2 mph 4 mph 68 % 0 in
15:27 40.6 °F 30.9 °F 30.3 in ENE 1 mph 3 mph 68 % 0 in
15:32 40.6 °F 31.3 °F 30.3 in ENE 3 mph 3 mph 69 % 0 in
15:37 40.6 °F 30.9 °F 30.3 in NE 1 mph 4 mph 68 % 0 in
15:42 40.6 °F 30.9 °F 30.3 in NNE 1 mph 4 mph 68 % 0 in
15:47 40.6 °F 30.9 °F 30.3 in NNE 1 mph 4 mph 68 % 0 in
15:57 40.8 °F 30.7 °F 30.3 in North 1 mph 2 mph 67 % 0 in
16:02 40.8 °F 30.7 °F 30.3 in North 2 mph 2 mph 67 % 0 in
16:07 41 °F 31.3 °F 30.3 in Calm   3 mph 68 % 0 in
16:12 41 °F 31.3 °F 30.3 in Calm   3 mph 68 % 0 in
16:17 41 °F 30.9 °F 30.3 in Calm   3 mph 67 % 0 in
16:22 40.8 °F 30.7 °F 30.3 in Calm   2 mph 67 % 0 in
16:27 40.8 °F 31.1 °F 30.3 in NNE 1 mph 2 mph 68 % 0 in
16:32 40.8 °F 30.7 °F 30.3 in NE 2 mph 2 mph 67 % 0 in
16:37 40.8 °F 30.7 °F 30.3 in NNE 1 mph 2 mph 67 % 0 in
16:42 40.6 °F 30.6 °F 30.3 in NE 2 mph 2 mph 67 % 0 in
16:47 40.6 °F 30.6 °F 30.3 in NNE 2 mph 2 mph 67 % 0 in
16:52 40.5 °F 30.4 °F 30.3 in Calm   4 mph 67 % 0 in
16:57 40.5 °F 30.4 °F 30.3 in NNE 1 mph 4 mph 67 % 0 in
17:02 40.5 °F 30.4 °F 30.3 in Calm   4 mph 67 % 0 in
17:07 40.6 °F 30.2 °F 30.3 in Calm   2 mph 66 % 0 in
17:12 40.5 °F 30 °F 30.3 in NNE 1 mph 2 mph 66 % 0 in
17:17 40.1 °F 30 °F 30.3 in NNE 1 mph 2 mph 67 % 0 in
17:22 39.6 °F 29.8 °F 30.3 in NE 1 mph 2 mph 68 % 0 in
17:27 39 °F 30 °F 30.3 in NE 1 mph 2 mph 70 % 0 in
17:32 38.5 °F 29.8 °F 30.3 in NNE 2 mph 2 mph 71 % 0 in
17:38 37.9 °F 29.7 °F 30.3 in NW 1 mph 2 mph 72 % 0 in
17:47 37.9 °F 29.7 °F 30.3 in NW 1 mph 2 mph 72 % 0 in
17:52 37.8 °F 29.5 °F 30.3 in NNW 1 mph 2 mph 72 % 0 in
17:57 37.6 °F 29.7 °F 30.3 in Calm   2 mph 73 % 0 in
18:07 36.9 °F 29.3 °F 30.3 in Calm   1 mph 74 % 0 in
18:12 36.3 °F 29.1 °F 30.3 in Calm   1 mph 75 % 0 in
18:17 36.1 °F 29.3 °F 30.3 in Calm   1 mph 76 % 0 in
18:27 35.2 °F 28.8 °F 30.3 in Calm     77 % 0 in
18:32 34.9 °F 28.8 °F 30.3 in Calm     78 % 0 in
18:37 34.3 °F 28.6 °F 30.3 in Calm     79 % 0 in
18:42 34.3 °F 28.8 °F 30.3 in Calm   1 mph 80 % 0 in
18:52 34.3 °F 28.8 °F 30.3 in Calm   2 mph 80 % 0 in
18:57 34.3 °F 28.8 °F 30.3 in NW 1 mph 2 mph 80 % 0 in
19:02 34.3 °F 28.8 °F 30.3 in Calm   2 mph 80 % 0 in
19:07 34.5 °F 28.9 °F 30.3 in Calm   2 mph 80 % 0 in
19:12 34.3 °F 28.8 °F 30.3 in North 1 mph 2 mph 80 % 0 in
19:17 34 °F 28.4 °F 30.3 in NNE 1 mph 1 mph 80 % 0 in
19:22 34 °F 28.8 °F 30.3 in NNE 2 mph 2 mph 81 % 0 in
19:27 35.2 °F 29.3 °F 30.3 in NNE 3 mph 3 mph 79 % 0 in
19:32 35.6 °F 29.1 °F 30.3 in NNE 3 mph 3 mph 77 % 0 in
19:37 35.4 °F 29.3 °F 30.3 in NE 3 mph 4 mph 78 % 0 in
19:42 35.8 °F 29.3 °F 30.3 in NE 1 mph 4 mph 77 % 0 in
19:47 36 °F 29.5 °F 30.3 in NE 1 mph 4 mph 77 % 0 in
19:52 35.8 °F 29.3 °F 30.3 in Calm   4 mph 77 % 0 in
19:57 35.6 °F 29.1 °F 30.3 in Calm   3 mph 77 % 0 in
20:02 34.3 °F 28.2 °F 30.3 in Calm   3 mph 78 % 0 in
20:07 33.4 °F 27.9 °F 30.3 in Calm   2 mph 80 % 0 in
20:12 33.3 °F 27.7 °F 30.3 in Calm   2 mph 80 % 0 in
20:17 33.1 °F 27.9 °F 30.3 in Calm   1 mph 81 % 0 in
20:22 33.1 °F 27.9 °F 30.3 in NW 1 mph 1 mph 81 % 0 in
20:32 33.3 °F 27.7 °F 30.3 in NNW 1 mph 1 mph 80 % 0 in
20:37 33.6 °F 27.9 °F 30.3 in Calm   2 mph 79 % 0 in
20:42 33.8 °F 28 °F 30.3 in Calm   2 mph 79 % 0 in
20:52 33.6 °F 27.9 °F 30.3 in Calm   1 mph 79 % 0 in
20:57 34 °F 27.9 °F 30.3 in Calm   1 mph 78 % 0 in
21:02 34 °F 27.9 °F 30.3 in Calm   1 mph 78 % 0 in
21:07 33.6 °F 27.5 °F 30.3 in Calm   1 mph 78 % 0 in
21:12 33.6 °F 27.1 °F 30.3 in Calm   1 mph 77 % 0 in
21:17 33.1 °F 27 °F 30.3 in Calm   1 mph 78 % 0 in
21:22 32.9 °F 26.8 °F 30.3 in Calm   1 mph 78 % 0 in
21:27 32.2 °F 26.1 °F 30.3 in Calm   1 mph 78 % 0 in
21:32 31.5 °F 26.2 °F 30.3 in WNW 1 mph 1 mph 81 % 0 in
21:37 31.3 °F 26.4 °F 30.3 in Calm   1 mph 82 % 0 in
21:42 31.5 °F 26.2 °F 30.3 in Calm   1 mph 81 % 0 in
21:47 31.5 °F 26.1 °F 30.3 in Calm   1 mph 80 % 0 in
21:52 31.1 °F 25.9 °F 30.3 in WNW 1 mph 1 mph 81 % 0 in
21:57 30.7 °F 25.5 °F 30.3 in WNW 1 mph 1 mph 81 % 0 in
22:02 30.6 °F 25.7 °F 30.3 in WNW 1 mph 1 mph 82 % 0 in
22:07 30.4 °F 25.5 °F 30.3 in WNW 1 mph 2 mph 82 % 0 in
22:12 30.7 °F 25.5 °F 30.3 in Calm   2 mph 81 % 0 in
22:17 30.9 °F 25.5 °F 30.3 in Calm   1 mph 80 % 0 in
22:22 30.6 °F 25.2 °F 30.3 in Calm   1 mph 80 % 0 in
22:27 30 °F 25.2 °F 30.3 in Calm     82 % 0 in
22:32 29.5 °F 25 °F 30.3 in Calm     83 % 0 in
22:37 29.1 °F 24.6 °F 30.3 in Calm     83 % 0 in
22:42 29.3 °F 25.3 °F 30.3 in Calm     85 % 0 in
22:47 29.8 °F 25.5 °F 30.3 in Calm     84 % 0 in
22:57 29.1 °F 24.6 °F 30.3 in Calm     83 % 0 in
23:02 28.9 °F 24.8 °F 30.3 in Calm     84 % 0 in
23:07 28.8 °F 24.6 °F 30.3 in Calm     84 % 0 in
23:12 28.8 °F 24.8 °F 30.3 in Calm     85 % 0 in
23:17 28.6 °F 24.6 °F 30.3 in Calm     85 % 0 in
23:22 28.6 °F 24.6 °F 30.3 in Calm     85 % 0 in
23:32 28.6 °F 24.4 °F 30.3 in Calm     84 % 0 in
23:37 28.8 °F 24.6 °F 30.3 in Calm     84 % 0 in
23:42 28.6 °F 24.4 °F 30.3 in Calm     84 % 0 in
23:47 28.2 °F 24.3 °F 30.3 in Calm     85 % 0 in
23:52 27.9 °F 23.9 °F 30.3 in Calm     85 % 0 in
23:57 27.7 °F 24.1 °F 30.3 in Calm     86 % 0 in
Meteo18
Compliments of Weather Underground - 4 mb

Script developed by  Jim McMurry - jmcmurry@mwt.net Adapted for the template by  Wim van der Kuil - Leuven-Template.eu

You find our weather info also at:

European Weather Network

Weather Underground

Equipment we use:

Weather-station
Davis Vue

Weather-program
Meteohub

Weather-server
Raspberry PI 2 B+

Provider
1 and 1

Davis Vue

Meteohub

Raspberry PI 2 B+

1 and 1